createdAt,value
2024-03-12T00:00:50.902Z,52.99
2024-03-12T00:01:51.032Z,51.35
2024-03-12T00:02:51.027Z,52.73
2024-03-12T00:03:51.159Z,53.49
2024-03-12T00:04:51.191Z,55.43
2024-03-12T00:05:51.271Z,52.09
2024-03-12T00:06:51.400Z,52.63
2024-03-12T00:07:51.435Z,53.51
2024-03-12T00:08:51.493Z,53.02
2024-03-12T00:09:51.631Z,53.27
2024-03-12T00:10:51.723Z,53.93
2024-03-12T00:11:51.821Z,55.62
2024-03-12T00:12:51.902Z,53.52
2024-03-12T00:13:51.969Z,52.75
2024-03-12T00:14:52.061Z,56.01
2024-03-12T00:15:52.151Z,54.51
2024-03-12T00:16:52.199Z,51.54
2024-03-12T00:17:52.323Z,51.41
2024-03-12T00:18:54.074Z,53.19
2024-03-12T00:19:52.371Z,51.16
2024-03-12T00:20:52.436Z,55.10
2024-03-12T00:21:52.445Z,55.55
2024-03-12T00:22:52.437Z,52.48
2024-03-12T00:23:52.468Z,52.92
2024-03-12T00:24:52.600Z,54.61
2024-03-12T00:25:52.564Z,52.94
2024-03-12T00:26:52.641Z,52.25
2024-03-12T00:27:52.784Z,51.69
2024-03-12T00:28:52.806Z,52.80
2024-03-12T00:29:52.872Z,53.38
2024-03-12T00:30:52.963Z,51.76
2024-03-12T00:31:53.024Z,51.12
2024-03-12T00:32:53.144Z,53.36
2024-03-12T00:33:53.267Z,53.48
2024-03-12T00:34:53.222Z,53.75
2024-03-12T00:35:53.319Z,52.72
2024-03-12T00:36:53.420Z,50.90
2024-03-12T00:37:53.494Z,53.28
2024-03-12T00:38:53.532Z,53.17
2024-03-12T00:39:53.646Z,53.02
2024-03-12T00:40:53.686Z,52.61
2024-03-12T00:41:53.748Z,54.56
2024-03-12T00:42:53.878Z,51.78
2024-03-12T00:43:53.932Z,51.08
2024-03-12T00:44:54.017Z,51.72
2024-03-12T00:45:54.148Z,50.41
2024-03-12T00:46:54.218Z,51.63
2024-03-12T00:47:54.339Z,52.14
2024-03-12T00:48:54.480Z,51.69
2024-03-12T00:49:57.158Z,50.01
2024-03-12T00:50:54.526Z,51.83
2024-03-12T00:51:54.571Z,52.85
2024-03-12T00:52:54.618Z,52.59
2024-03-12T00:53:54.542Z,50.90
2024-03-12T00:54:54.576Z,50.55
2024-03-12T00:55:54.702Z,50.69
2024-03-12T00:56:54.534Z,52.20
2024-03-12T00:57:54.562Z,50.07
2024-03-12T00:58:54.527Z,51.22
2024-03-12T00:59:54.546Z,51.19
2024-03-12T01:00:55.115Z,52.42
2024-03-12T01:01:54.556Z,50.83
2024-03-12T01:02:54.546Z,51.73
2024-03-12T01:03:54.563Z,50.00
2024-03-12T01:04:54.561Z,53.91
2024-03-12T01:05:54.552Z,53.83
2024-03-12T01:06:54.537Z,54.85
2024-03-12T01:07:54.579Z,53.29
2024-03-12T01:08:54.578Z,52.56
2024-03-12T01:09:54.667Z,54.30
2024-03-12T01:10:54.694Z,52.18
2024-03-12T01:11:54.600Z,51.24
2024-03-12T01:12:54.620Z,50.61
2024-03-12T01:13:54.609Z,53.09
2024-03-12T01:14:54.586Z,53.67
2024-03-12T01:15:54.718Z,52.37
2024-03-12T01:16:54.590Z,56.88
2024-03-12T01:17:54.756Z,52.53
2024-03-12T01:18:54.596Z,53.56
2024-03-12T01:19:54.590Z,52.51
2024-03-12T01:20:54.589Z,54.19
2024-03-12T01:21:54.701Z,55.08
2024-03-12T01:22:54.737Z,53.77
2024-03-12T01:23:54.841Z,54.16
2024-03-12T01:24:54.987Z,55.61
2024-03-12T01:25:54.983Z,53.41
2024-03-12T01:26:55.074Z,52.48
2024-03-12T01:27:55.180Z,53.35
2024-03-12T01:28:55.231Z,52.47
2024-03-12T01:29:55.316Z,51.84
2024-03-12T01:30:55.431Z,52.12
2024-03-12T01:31:55.482Z,51.72
2024-03-12T01:32:55.621Z,52.78
2024-03-12T01:33:55.682Z,51.88
2024-03-12T01:35:00.769Z,52.16
2024-03-12T01:35:55.727Z,52.22
2024-03-12T01:36:55.794Z,52.40
2024-03-12T01:37:56.362Z,52.05
2024-03-12T01:38:56.066Z,49.87
2024-03-12T01:39:55.842Z,49.49
2024-03-12T01:40:55.790Z,51.60
2024-03-12T01:41:55.803Z,52.27
2024-03-12T01:42:55.819Z,51.55
2024-03-12T01:43:55.796Z,51.43
2024-03-12T01:44:55.786Z,53.53
2024-03-12T01:45:55.858Z,53.55
2024-03-12T01:46:55.934Z,50.00
2024-03-12T01:47:56.200Z,51.43
2024-03-12T01:48:56.176Z,53.15
2024-03-12T01:49:56.219Z,52.87
2024-03-12T01:50:56.303Z,53.16
2024-03-12T01:51:56.448Z,50.95
2024-03-12T01:52:56.482Z,52.86
2024-03-12T01:53:56.565Z,52.88
2024-03-12T01:54:56.751Z,52.83
2024-03-12T01:55:56.754Z,51.05
2024-03-12T01:56:56.843Z,52.44
2024-03-12T01:57:56.943Z,52.05
2024-03-12T01:58:57.089Z,53.04
2024-03-12T01:59:57.128Z,51.21
2024-03-12T02:00:57.264Z,50.35
2024-03-12T02:01:57.348Z,52.19
2024-03-12T02:02:57.342Z,51.03
2024-03-12T02:03:57.412Z,53.69
2024-03-12T02:04:57.411Z,51.46
2024-03-12T02:05:57.460Z,51.15
2024-03-12T02:06:57.505Z,51.22
2024-03-12T02:07:57.516Z,51.65
2024-03-12T02:08:57.521Z,53.75
2024-03-12T02:09:57.570Z,50.44
2024-03-12T02:10:57.607Z,50.86
2024-03-12T02:11:57.647Z,50.66
2024-03-12T02:12:57.720Z,53.43
2024-03-12T02:13:57.725Z,50.95
2024-03-12T02:14:57.737Z,52.22
2024-03-12T02:15:57.878Z,53.04
2024-03-12T02:16:57.945Z,51.79
2024-03-12T02:17:58.142Z,51.45
2024-03-12T02:18:58.156Z,53.49
2024-03-12T02:19:58.216Z,51.12
2024-03-12T02:20:58.323Z,51.16
2024-03-12T02:21:58.458Z,51.06
2024-03-12T02:22:58.483Z,50.59
2024-03-12T02:23:58.591Z,52.71
2024-03-12T02:24:58.789Z,51.21
2024-03-12T02:25:58.807Z,53.30
2024-03-12T02:26:58.881Z,52.33
2024-03-12T02:27:59.022Z,51.11
2024-03-12T02:28:59.089Z,51.43
2024-03-12T02:29:59.219Z,50.93
2024-03-12T02:30:59.341Z,50.31
2024-03-12T02:31:59.402Z,52.13
2024-03-12T02:32:59.545Z,50.96
2024-03-12T02:33:59.533Z,54.04
2024-03-12T02:34:59.581Z,50.71
2024-03-12T02:35:59.677Z,51.79
2024-03-12T02:36:59.830Z,52.25
2024-03-12T02:37:59.876Z,50.43
2024-03-12T02:38:59.984Z,50.00
2024-03-12T02:40:00.173Z,53.57
2024-03-12T02:41:00.221Z,52.15
2024-03-12T02:42:00.302Z,51.39
2024-03-12T02:43:00.431Z,53.66
2024-03-12T02:44:00.471Z,50.67
2024-03-12T02:45:00.576Z,50.32
2024-03-12T02:46:00.736Z,51.86
2024-03-12T02:47:00.755Z,51.13
2024-03-12T02:48:00.939Z,51.28
2024-03-12T02:49:01.012Z,51.19
2024-03-12T02:50:01.055Z,52.77
2024-03-12T02:51:01.132Z,51.63
2024-03-12T02:52:01.348Z,51.71
2024-03-12T02:53:01.342Z,51.77
2024-03-12T02:54:01.431Z,52.39
2024-03-12T02:55:01.585Z,53.12
2024-03-12T02:56:01.636Z,51.95
2024-03-12T02:57:01.719Z,50.72
2024-03-12T02:58:01.889Z,55.04
2024-03-12T02:59:01.895Z,53.93
2024-03-12T03:00:01.962Z,53.10
2024-03-12T03:01:02.256Z,52.47
2024-03-12T03:02:02.276Z,55.45
2024-03-12T03:03:02.246Z,51.70
2024-03-12T03:04:02.416Z,53.09
2024-03-12T03:05:02.400Z,52.93
2024-03-12T03:06:02.487Z,52.35
2024-03-12T03:07:02.668Z,52.60
2024-03-12T03:08:02.652Z,52.75
2024-03-12T03:09:02.767Z,51.48
2024-03-12T03:10:02.935Z,53.68
2024-03-12T03:11:02.977Z,52.11
2024-03-12T03:12:03.056Z,53.04
2024-03-12T03:13:03.228Z,51.96
2024-03-12T03:14:03.243Z,52.71
2024-03-12T03:15:03.335Z,52.54
2024-03-12T03:16:03.453Z,50.22
2024-03-12T03:17:03.544Z,53.09
2024-03-12T03:18:03.657Z,50.98
2024-03-12T03:19:03.791Z,51.32
2024-03-12T03:20:03.812Z,50.28
2024-03-12T03:21:03.913Z,51.15
2024-03-12T03:22:04.129Z,52.30
2024-03-12T03:23:04.122Z,53.92
2024-03-12T03:24:04.195Z,54.82
2024-03-12T03:25:04.362Z,52.61
2024-03-12T03:26:04.374Z,51.56
2024-03-12T03:27:04.483Z,51.11
2024-03-12T03:28:04.673Z,50.34
2024-03-12T03:29:04.909Z,52.56
2024-03-12T03:30:04.775Z,51.24
2024-03-12T03:31:04.896Z,51.18
2024-03-12T03:32:04.968Z,51.45
2024-03-12T03:33:05.100Z,50.81
2024-03-12T03:34:05.321Z,51.28
2024-03-12T03:35:05.247Z,53.44
2024-03-12T03:36:05.330Z,51.87
2024-03-12T03:37:05.436Z,51.47
2024-03-12T03:38:05.515Z,52.90
2024-03-12T03:39:05.608Z,50.54
2024-03-12T03:40:05.869Z,50.47
2024-03-12T03:41:05.793Z,52.19
2024-03-12T03:42:05.885Z,51.43
2024-03-12T03:43:06.023Z,51.32
2024-03-12T03:44:06.077Z,50.56
2024-03-12T03:45:06.185Z,53.40
2024-03-12T03:46:06.368Z,50.37
2024-03-12T03:47:06.460Z,50.55
2024-03-12T03:48:06.500Z,51.75
2024-03-12T03:49:06.652Z,50.68
2024-03-12T03:50:06.659Z,52.49
2024-03-12T03:51:06.789Z,50.60
2024-03-12T03:52:06.923Z,50.13
2024-03-12T03:53:06.963Z,50.76
2024-03-12T03:54:07.026Z,52.37
2024-03-12T03:55:07.190Z,50.56
2024-03-12T03:56:07.207Z,50.94
2024-03-12T03:57:07.367Z,50.91
2024-03-12T03:58:07.443Z,54.26
2024-03-12T03:59:07.481Z,50.54
2024-03-12T04:00:07.572Z,54.47
2024-03-12T04:01:07.723Z,54.35
2024-03-12T04:02:07.724Z,50.84
2024-03-12T04:03:07.852Z,50.98
2024-03-12T04:04:07.983Z,50.57
2024-03-12T04:05:07.998Z,53.45
2024-03-12T04:06:08.188Z,52.07
2024-03-12T04:07:08.247Z,52.21
2024-03-12T04:08:08.290Z,53.12
2024-03-12T04:09:08.368Z,51.51
2024-03-12T04:10:08.559Z,52.65
2024-03-12T04:11:08.641Z,51.57
2024-03-12T04:12:08.650Z,52.04
2024-03-12T04:13:08.802Z,52.56
2024-03-12T04:14:08.852Z,51.83
2024-03-12T04:15:08.936Z,51.77
2024-03-12T04:16:09.089Z,51.58
2024-03-12T04:17:09.095Z,53.94
2024-03-12T04:18:09.224Z,52.51
2024-03-12T04:19:09.334Z,53.25
2024-03-12T04:20:09.388Z,52.19
2024-03-12T04:21:09.463Z,51.27
2024-03-12T04:22:09.604Z,52.20
2024-03-12T04:23:09.686Z,52.24
2024-03-12T04:24:09.731Z,51.59
2024-03-12T04:25:10.267Z,51.47
2024-03-12T04:26:09.873Z,52.48
2024-03-12T04:27:09.945Z,50.88
2024-03-12T04:28:10.051Z,51.73
2024-03-12T04:29:10.088Z,50.48
2024-03-12T04:30:10.199Z,53.11
2024-03-12T04:31:10.299Z,51.70
2024-03-12T04:32:10.344Z,52.66
2024-03-12T04:33:10.466Z,52.50
2024-03-12T04:34:10.633Z,50.69
2024-03-12T04:35:10.864Z,51.90
2024-03-12T04:36:10.705Z,51.11
2024-03-12T04:37:10.838Z,51.85
2024-03-12T04:38:13.873Z,50.04
2024-03-12T04:39:21.766Z,50.00
2024-03-12T04:40:21.855Z,50.00
2024-03-12T04:41:22.185Z,50.00
2024-03-12T04:42:21.783Z,50.00
2024-03-12T04:43:21.854Z,50.00
2024-03-12T04:44:21.775Z,52.84
2024-03-12T04:45:21.770Z,50.00
2024-03-12T04:46:21.792Z,51.21
2024-03-12T04:47:21.776Z,51.88
2024-03-12T04:48:21.822Z,51.07
2024-03-12T04:49:21.783Z,51.21
2024-03-12T04:50:21.794Z,50.00
2024-03-12T04:51:21.775Z,52.73
2024-03-12T04:52:21.772Z,51.15
2024-03-12T04:53:23.636Z,50.40
2024-03-12T04:54:21.782Z,52.46
2024-03-12T04:55:21.780Z,51.43
2024-03-12T04:56:21.784Z,53.55
2024-03-12T04:57:21.827Z,51.50
2024-03-12T04:58:21.793Z,54.40
2024-03-12T04:59:21.793Z,51.95
2024-03-12T05:00:21.838Z,52.54
2024-03-12T05:01:21.935Z,50.63
2024-03-12T05:02:21.805Z,51.92
2024-03-12T05:03:21.819Z,54.09
2024-03-12T05:04:23.549Z,52.75
2024-03-12T05:05:21.790Z,50.00
2024-03-12T05:06:21.803Z,51.78
2024-03-12T05:07:21.803Z,50.52
2024-03-12T05:08:21.905Z,51.76
2024-03-12T05:09:22.006Z,53.16
2024-03-12T05:10:22.190Z,50.44
2024-03-12T05:11:22.205Z,53.70
2024-03-12T05:12:22.285Z,54.55
2024-03-12T05:13:22.359Z,52.45
2024-03-12T05:14:22.459Z,53.60
2024-03-12T05:15:22.632Z,52.55
2024-03-12T05:16:25.443Z,52.14
2024-03-12T05:17:22.623Z,53.44
2024-03-12T05:18:22.635Z,52.10
2024-03-12T05:19:22.642Z,53.42
2024-03-12T05:20:22.648Z,53.75
2024-03-12T05:21:22.648Z,55.64
2024-03-12T05:22:22.676Z,53.12
2024-03-12T05:23:22.646Z,52.53
2024-03-12T05:24:22.655Z,53.93
2024-03-12T05:25:22.661Z,54.61
2024-03-12T05:26:22.673Z,54.11
2024-03-12T05:27:22.689Z,52.59
2024-03-12T05:28:22.669Z,53.17
2024-03-12T05:29:22.674Z,53.50
2024-03-12T05:30:22.660Z,52.24
2024-03-12T05:31:22.670Z,51.88
2024-03-12T05:32:22.675Z,51.13
2024-03-12T05:33:22.667Z,51.48
2024-03-12T05:34:22.691Z,54.85
2024-03-12T05:35:22.729Z,52.69
2024-03-12T05:36:22.672Z,53.96
2024-03-12T05:37:22.721Z,54.95
2024-03-12T05:38:22.669Z,53.56
2024-03-12T05:39:22.677Z,53.98
2024-03-12T05:40:22.703Z,53.87
2024-03-12T05:41:22.698Z,51.60
2024-03-12T05:42:22.722Z,53.91
2024-03-12T05:43:22.705Z,53.58
2024-03-12T05:44:22.715Z,51.10
2024-03-12T05:45:22.730Z,52.74
2024-03-12T05:46:22.773Z,53.98
2024-03-12T05:47:22.709Z,53.22
2024-03-12T05:48:22.715Z,53.93
2024-03-12T05:49:22.776Z,53.89
2024-03-12T05:50:22.741Z,51.14
2024-03-12T05:51:22.702Z,52.78
2024-03-12T05:52:22.716Z,52.89
2024-03-12T05:53:22.707Z,52.85
2024-03-12T05:54:22.717Z,52.19
2024-03-12T05:55:22.718Z,51.78
2024-03-12T05:56:22.728Z,50.27
2024-03-12T05:57:22.721Z,52.69
2024-03-12T05:58:22.731Z,52.90
2024-03-12T05:59:22.730Z,50.64
2024-03-12T06:00:22.797Z,53.74
2024-03-12T06:01:22.962Z,52.66
2024-03-12T06:02:22.980Z,52.69
2024-03-12T06:03:23.069Z,55.23
2024-03-12T06:04:23.213Z,53.40
2024-03-12T06:05:23.240Z,51.58
2024-03-12T06:06:23.335Z,52.70
2024-03-12T06:07:23.503Z,52.11
2024-03-12T06:08:23.514Z,53.61
2024-03-12T06:09:23.619Z,52.52
2024-03-12T06:10:23.815Z,50.97
2024-03-12T06:11:23.858Z,52.03
2024-03-12T06:12:23.876Z,53.16
2024-03-12T06:13:23.969Z,53.02
2024-03-12T06:14:24.064Z,53.89
2024-03-12T06:15:24.143Z,53.63
2024-03-12T06:16:24.266Z,51.86
2024-03-12T06:17:24.400Z,51.82
2024-03-12T06:18:24.426Z,52.03
2024-03-12T06:19:24.489Z,53.42
2024-03-12T06:20:24.612Z,52.58
2024-03-12T06:21:33.025Z,53.56
2024-03-12T06:22:24.695Z,53.74
2024-03-12T06:23:24.915Z,53.98
2024-03-12T06:24:24.706Z,54.03
2024-03-12T06:25:24.731Z,54.02
2024-03-12T06:26:24.713Z,51.91
2024-03-12T06:27:24.752Z,54.14
2024-03-12T06:28:24.776Z,53.14
2024-03-12T06:29:24.809Z,53.29
2024-03-12T06:30:24.813Z,51.13
2024-03-12T06:31:24.946Z,52.83
2024-03-12T06:32:24.845Z,53.45
2024-03-12T06:33:24.863Z,52.76
2024-03-12T06:34:24.944Z,53.04
2024-03-12T06:35:24.993Z,51.69
2024-03-12T06:36:25.109Z,52.59
2024-03-12T06:37:25.178Z,50.51
2024-03-12T06:38:25.256Z,51.42
2024-03-12T06:39:25.331Z,50.78
2024-03-12T06:40:25.438Z,53.97
2024-03-12T06:41:25.507Z,53.90
2024-03-12T06:42:25.612Z,54.84
2024-03-12T06:43:25.686Z,54.16
2024-03-12T06:44:25.774Z,53.24
2024-03-12T06:45:25.875Z,53.14
2024-03-12T06:46:25.980Z,52.15
2024-03-12T06:47:26.064Z,54.52
2024-03-12T06:48:26.234Z,51.12
2024-03-12T06:49:26.183Z,54.65
2024-03-12T06:50:26.288Z,53.07
2024-03-12T06:51:26.428Z,52.46
2024-03-12T06:52:26.464Z,52.53
2024-03-12T06:53:26.616Z,51.08
2024-03-12T06:54:26.654Z,53.54
2024-03-12T06:55:26.765Z,52.05
2024-03-12T06:56:26.776Z,51.56
2024-03-12T06:57:26.877Z,53.78
2024-03-12T06:58:26.954Z,53.01
2024-03-12T06:59:27.054Z,53.27
2024-03-12T07:00:27.176Z,53.18
2024-03-12T07:01:27.266Z,52.47
2024-03-12T07:02:27.326Z,52.90
2024-03-12T07:03:27.452Z,55.00
2024-03-12T07:04:27.546Z,54.09
2024-03-12T07:05:27.588Z,51.99
2024-03-12T07:06:27.718Z,52.29
2024-03-12T07:07:27.795Z,52.73
2024-03-12T07:08:27.872Z,52.00
2024-03-12T07:09:27.996Z,51.51
2024-03-12T07:10:28.211Z,53.42
2024-03-12T07:11:28.156Z,52.21
2024-03-12T07:12:28.262Z,53.39
2024-03-12T07:13:28.302Z,52.95
2024-03-12T07:14:28.400Z,53.91
2024-03-12T07:15:28.508Z,50.70
2024-03-12T07:16:28.519Z,52.45
2024-03-12T07:17:31.284Z,53.38
2024-03-12T07:18:28.694Z,53.83
2024-03-12T07:19:28.613Z,53.40
2024-03-12T07:20:28.615Z,53.13
2024-03-12T07:21:28.694Z,52.29
2024-03-12T07:22:28.677Z,53.38
2024-03-12T07:23:28.678Z,53.34
2024-03-12T07:24:28.724Z,52.66
2024-03-12T07:25:28.676Z,51.67
2024-03-12T07:26:28.676Z,54.99
2024-03-12T07:27:28.704Z,52.57
2024-03-12T07:28:28.744Z,53.49
2024-03-12T07:29:28.699Z,50.42
2024-03-12T07:30:28.728Z,54.85
2024-03-12T07:31:28.694Z,53.40
2024-03-12T07:32:28.718Z,53.49
2024-03-12T07:33:28.730Z,52.71
2024-03-12T07:34:28.773Z,53.89
2024-03-12T07:35:28.698Z,52.33
2024-03-12T07:36:28.731Z,51.92
2024-03-12T07:37:28.689Z,50.38
2024-03-12T07:38:28.753Z,52.01
2024-03-12T07:39:28.717Z,52.71
2024-03-12T07:40:28.807Z,50.91
2024-03-12T07:41:28.708Z,50.46
2024-03-12T07:42:28.761Z,52.20
2024-03-12T07:43:28.706Z,52.12
2024-03-12T07:44:28.710Z,54.45
2024-03-12T07:45:29.192Z,55.46
2024-03-12T07:46:28.727Z,52.74
2024-03-12T07:47:28.703Z,53.82
2024-03-12T07:48:28.799Z,51.78
2024-03-12T07:49:28.741Z,52.27
2024-03-12T07:50:28.716Z,53.52
2024-03-12T07:51:28.740Z,53.09
2024-03-12T07:52:28.723Z,53.77
2024-03-12T07:53:28.722Z,53.78
2024-03-12T07:54:28.749Z,53.10
2024-03-12T07:55:28.784Z,54.78
2024-03-12T07:56:28.886Z,53.79
2024-03-12T07:57:28.991Z,54.50
2024-03-12T07:58:29.053Z,51.15
2024-03-12T07:59:29.148Z,50.13
2024-03-12T08:00:29.290Z,50.84
2024-03-12T08:01:29.340Z,51.93
2024-03-12T08:02:29.377Z,53.14
2024-03-12T08:03:29.830Z,52.95
2024-03-12T08:04:29.547Z,53.20
2024-03-12T08:05:32.213Z,51.87
2024-03-12T08:06:29.736Z,51.97
2024-03-12T08:07:29.627Z,51.94
2024-03-12T08:08:29.634Z,51.73
2024-03-12T08:09:29.693Z,51.21
2024-03-12T08:10:29.649Z,52.13
2024-03-12T08:11:29.634Z,52.01
2024-03-12T08:12:29.679Z,52.70
2024-03-12T08:13:29.648Z,52.70
2024-03-12T08:14:29.641Z,50.47
2024-03-12T08:15:29.675Z,51.53
2024-03-12T08:16:29.652Z,53.42
2024-03-12T08:17:29.988Z,51.99
2024-03-12T08:18:29.722Z,54.37
2024-03-12T08:19:29.697Z,53.43
2024-03-12T08:20:29.684Z,55.52
2024-03-12T08:21:29.843Z,52.08
2024-03-12T08:22:29.698Z,54.08
2024-03-12T08:23:29.665Z,52.52
2024-03-12T08:24:29.723Z,52.57
2024-03-12T08:25:31.554Z,53.82
2024-03-12T08:26:29.681Z,53.48
2024-03-12T08:27:29.866Z,53.72
2024-03-12T08:28:29.693Z,54.28
2024-03-12T08:29:29.732Z,53.84
2024-03-12T08:30:32.408Z,53.43
2024-03-12T08:31:33.453Z,53.51
2024-03-12T08:32:30.776Z,53.56
2024-03-12T08:33:29.806Z,53.73
2024-03-12T08:34:29.757Z,53.77
2024-03-12T08:35:29.719Z,52.39
2024-03-12T08:36:29.725Z,53.89
2024-03-12T08:37:29.741Z,54.30
2024-03-12T08:38:29.759Z,52.41
2024-03-12T08:39:30.106Z,52.76
2024-03-12T08:40:29.791Z,51.11
2024-03-12T08:41:29.745Z,54.03
2024-03-12T08:42:29.758Z,52.47
2024-03-12T08:43:29.791Z,53.73
2024-03-12T08:44:29.752Z,52.11
2024-03-12T08:45:29.783Z,54.14
2024-03-12T08:46:30.089Z,51.14
2024-03-12T08:47:29.777Z,51.56
2024-03-12T08:48:29.785Z,51.98
2024-03-12T08:49:29.776Z,51.30
2024-03-12T08:50:29.755Z,53.90
2024-03-12T08:51:29.807Z,53.93
2024-03-12T08:52:29.848Z,51.86
2024-03-12T08:53:29.925Z,52.37
2024-03-12T08:54:30.111Z,50.83
2024-03-12T08:55:30.222Z,52.26
2024-03-12T08:56:30.177Z,52.02
2024-03-12T08:57:30.286Z,53.47
2024-03-12T08:58:30.352Z,53.16
2024-03-12T08:59:30.439Z,52.96
2024-03-12T09:00:30.713Z,53.15
2024-03-12T09:01:30.733Z,52.64
2024-03-12T09:02:30.680Z,51.61
2024-03-12T09:03:30.870Z,50.73
2024-03-12T09:04:30.878Z,50.17
2024-03-12T09:05:30.939Z,54.58
2024-03-12T09:06:31.110Z,50.70
2024-03-12T09:07:31.121Z,53.10
2024-03-12T09:08:31.183Z,51.08
2024-03-12T09:09:31.316Z,52.03
2024-03-12T09:10:31.471Z,51.37
2024-03-12T09:11:31.560Z,51.83
2024-03-12T09:12:31.550Z,52.21
2024-03-12T09:13:38.843Z,50.00
2024-03-12T09:14:38.832Z,50.00
2024-03-12T09:15:38.884Z,50.00
2024-03-12T09:16:38.898Z,50.00
2024-03-12T09:17:38.993Z,50.00
2024-03-12T09:18:38.893Z,51.57
2024-03-12T09:19:38.847Z,51.17
2024-03-12T09:20:38.836Z,50.47
2024-03-12T09:21:38.856Z,50.84
2024-03-12T09:22:38.853Z,52.81
2024-03-12T09:23:45.364Z,50.89
2024-03-12T09:24:39.893Z,51.00
2024-03-12T09:25:38.838Z,50.71
2024-03-12T09:26:38.860Z,51.74
2024-03-12T09:27:38.941Z,50.36
2024-03-12T09:28:38.860Z,51.67
2024-03-12T09:29:38.841Z,52.49
2024-03-12T09:30:38.944Z,52.06
2024-03-12T09:31:39.768Z,51.61
2024-03-12T09:32:38.922Z,51.10
2024-03-12T09:33:38.920Z,51.07
2024-03-12T09:34:38.893Z,52.30
2024-03-12T09:35:38.949Z,52.04
2024-03-12T09:36:38.942Z,52.90
2024-03-12T09:37:38.893Z,52.02
2024-03-12T09:38:38.956Z,52.54
2024-03-12T09:39:39.094Z,51.82
2024-03-12T09:40:39.126Z,50.22
2024-03-12T09:41:39.240Z,51.51
2024-03-12T09:42:39.403Z,50.05
2024-03-12T09:43:39.379Z,53.58
2024-03-12T09:44:39.496Z,51.82
2024-03-12T09:45:39.670Z,51.37
2024-03-12T09:46:39.652Z,50.07
2024-03-12T09:47:39.770Z,50.67
2024-03-12T09:48:39.870Z,50.61
2024-03-12T09:49:39.927Z,53.08
2024-03-12T09:50:40.001Z,51.61
2024-03-12T09:51:40.096Z,50.88
2024-03-12T09:52:40.236Z,51.55
2024-03-12T09:53:40.331Z,52.94
2024-03-12T09:54:40.615Z,51.08
2024-03-12T09:55:41.184Z,52.28
2024-03-12T09:56:40.564Z,50.92
2024-03-12T09:57:40.665Z,50.67
2024-03-12T09:58:40.757Z,51.90
2024-03-12T09:59:40.817Z,51.09
2024-03-12T10:00:40.947Z,51.42
2024-03-12T10:01:41.013Z,50.00
2024-03-12T10:02:41.103Z,51.73
2024-03-12T10:03:41.213Z,51.19
2024-03-12T10:04:41.284Z,52.13
2024-03-12T10:05:41.453Z,52.01
2024-03-12T10:06:41.519Z,49.93
2024-03-12T10:07:41.550Z,51.37
2024-03-12T10:08:41.637Z,53.09
2024-03-12T10:09:41.728Z,52.08
2024-03-12T10:10:41.865Z,50.23
2024-03-12T10:11:41.943Z,53.18
2024-03-12T10:12:42.053Z,54.07
2024-03-12T10:13:42.091Z,53.65
2024-03-12T10:14:42.202Z,51.62
2024-03-12T10:15:42.295Z,51.52
2024-03-12T10:16:42.369Z,52.45
2024-03-12T10:17:42.523Z,51.20
2024-03-12T10:18:42.593Z,52.11
2024-03-12T10:19:42.631Z,53.85
2024-03-12T10:20:42.714Z,51.62
2024-03-12T10:21:42.799Z,51.85
2024-03-12T10:22:42.888Z,51.89
2024-03-12T10:23:42.953Z,51.45
2024-03-12T10:24:43.089Z,50.00
2024-03-12T10:25:43.152Z,52.88
2024-03-12T10:26:43.287Z,52.77
2024-03-12T10:27:45.865Z,52.21
2024-03-12T10:28:44.403Z,52.33
2024-03-12T10:29:43.322Z,52.55
2024-03-12T10:30:43.369Z,52.95
2024-03-12T10:31:43.319Z,53.16
2024-03-12T10:32:43.357Z,53.43
2024-03-12T10:33:43.452Z,53.76
2024-03-12T10:34:43.353Z,52.51
2024-03-12T10:35:43.353Z,53.06
2024-03-12T10:36:43.494Z,51.86
2024-03-12T10:37:43.369Z,52.93
2024-03-12T10:38:43.355Z,54.18
2024-03-12T10:39:43.421Z,52.95
2024-03-12T10:40:43.486Z,51.42
2024-03-12T10:41:43.573Z,53.04
2024-03-12T10:42:43.683Z,52.86
2024-03-12T10:43:43.753Z,53.79
2024-03-12T10:44:43.860Z,52.24
2024-03-12T10:45:43.968Z,51.35
2024-03-12T10:46:44.022Z,51.90
2024-03-12T10:47:44.144Z,50.80
2024-03-12T10:48:44.221Z,53.12
2024-03-12T10:49:44.286Z,53.98
2024-03-12T10:50:44.395Z,50.28
2024-03-12T10:51:44.615Z,51.67
2024-03-12T10:52:44.578Z,52.32
2024-03-12T10:53:44.662Z,54.06
2024-03-12T10:54:48.309Z,52.25
2024-03-12T10:55:45.804Z,52.33
2024-03-12T10:56:44.762Z,52.38
2024-03-12T10:57:44.799Z,52.97
2024-03-12T10:58:44.781Z,53.33
2024-03-12T10:59:44.812Z,53.54
2024-03-12T11:00:44.861Z,52.24
2024-03-12T11:01:44.891Z,51.88
2024-03-12T11:02:44.801Z,53.90
2024-03-12T11:03:44.888Z,52.58
2024-03-12T11:04:44.816Z,51.00
2024-03-12T11:05:44.804Z,51.80
2024-03-12T11:06:44.879Z,51.72
2024-03-12T11:07:44.810Z,52.90
2024-03-12T11:08:44.822Z,50.99
2024-03-12T11:09:44.856Z,53.27
2024-03-12T11:10:44.861Z,51.45
2024-03-12T11:11:44.840Z,52.52
2024-03-12T11:12:44.849Z,53.25
2024-03-12T11:13:44.896Z,52.33
2024-03-12T11:14:44.992Z,50.15
2024-03-12T11:15:45.121Z,51.30
2024-03-12T11:16:45.180Z,51.67
2024-03-12T11:17:45.296Z,52.40
2024-03-12T11:18:45.380Z,52.07
2024-03-12T11:19:45.450Z,52.85
2024-03-12T11:20:45.568Z,53.07
2024-03-12T11:21:45.677Z,53.03
2024-03-12T11:22:45.699Z,50.72
2024-03-12T11:23:45.814Z,50.91
2024-03-12T11:24:45.931Z,50.80
2024-03-12T11:25:49.621Z,51.99
2024-03-12T11:26:45.972Z,52.09
2024-03-12T11:27:46.036Z,52.44
2024-03-12T11:28:45.978Z,52.17
2024-03-12T11:29:45.990Z,50.81
2024-03-12T11:30:46.028Z,52.82
2024-03-12T11:31:45.993Z,53.38
2024-03-12T11:32:46.014Z,52.26
2024-03-12T11:33:46.026Z,50.00
2024-03-12T11:34:45.996Z,53.12
2024-03-12T11:35:45.996Z,51.73
2024-03-12T11:36:46.073Z,53.73
2024-03-12T11:37:46.041Z,51.35
2024-03-12T11:38:46.125Z,52.37
2024-03-12T11:39:46.280Z,51.05
2024-03-12T11:40:46.298Z,51.38
2024-03-12T11:41:46.406Z,51.94
2024-03-12T11:42:46.525Z,53.25
2024-03-12T11:43:46.594Z,52.40
2024-03-12T11:44:46.670Z,53.27
2024-03-12T11:45:47.002Z,52.86
2024-03-12T11:46:46.870Z,51.83
2024-03-12T11:47:47.028Z,50.79
2024-03-12T11:48:47.456Z,51.86
2024-03-12T11:49:47.167Z,51.76
2024-03-12T11:50:47.222Z,51.59
2024-03-12T11:51:47.350Z,53.34
2024-03-12T11:52:47.415Z,54.06
2024-03-12T11:53:47.465Z,55.71
2024-03-12T11:54:47.551Z,57.50
2024-03-12T11:55:47.623Z,60.57
2024-03-12T11:56:47.665Z,61.83
2024-03-12T11:57:47.814Z,64.02
2024-03-12T11:58:47.988Z,67.27
2024-03-12T11:59:48.009Z,69.17
2024-03-12T12:00:48.128Z,72.39
2024-03-12T12:01:48.244Z,72.79
2024-03-12T12:02:48.243Z,74.36
2024-03-12T12:03:48.415Z,76.64
2024-03-12T12:04:48.498Z,76.78
2024-03-12T12:05:48.594Z,79.22
2024-03-12T12:06:48.690Z,80.88
2024-03-12T12:07:48.785Z,84.73
2024-03-12T12:08:53.682Z,90.80
2024-03-12T12:09:49.933Z,91.02
2024-03-12T12:10:48.879Z,92.23
2024-03-12T12:11:48.939Z,94.80
2024-03-12T12:12:49.026Z,98.72
2024-03-12T12:13:48.905Z,104.10
2024-03-12T12:14:48.913Z,105.05
2024-03-12T12:15:48.911Z,106.68
2024-03-12T12:16:53.792Z,110.68
2024-03-12T12:17:49.922Z,110.73
2024-03-12T12:18:48.992Z,110.71
2024-03-12T12:19:49.046Z,110.87
2024-03-12T12:20:48.879Z,119.37
2024-03-12T12:21:49.079Z,134.72
2024-03-12T12:22:49.012Z,137.96
2024-03-12T12:23:48.944Z,132.92
2024-03-12T12:24:48.995Z,133.11
2024-03-12T12:25:48.970Z,129.37
2024-03-12T12:26:48.941Z,127.62
2024-03-12T12:27:49.178Z,127.37
2024-03-12T12:28:49.061Z,129.05
2024-03-12T12:29:49.333Z,148.14
2024-03-12T12:30:49.200Z,154.93
2024-03-12T12:31:49.234Z,151.79
2024-03-12T12:32:49.336Z,147.72
2024-03-12T12:33:49.434Z,145.71
2024-03-12T12:34:49.455Z,143.33
2024-03-12T12:35:50.699Z,144.78
2024-03-12T12:36:49.564Z,150.22
2024-03-12T12:37:49.667Z,150.41
2024-03-12T12:38:55.311Z,150.19
2024-03-12T12:39:53.711Z,150.20
2024-03-12T12:40:49.948Z,150.20
2024-03-12T12:41:49.790Z,143.85
2024-03-12T12:42:49.861Z,136.91
2024-03-12T12:43:49.781Z,133.00
2024-03-12T12:44:49.792Z,137.79
2024-03-12T12:45:49.854Z,137.98
2024-03-12T12:46:50.221Z,140.85
2024-03-12T12:47:49.963Z,140.90
2024-03-12T12:48:49.934Z,141.03
2024-03-12T12:49:49.835Z,141.06
2024-03-12T12:50:49.834Z,140.88
2024-03-12T12:51:49.885Z,140.54
2024-03-12T12:52:49.829Z,139.95